createdAt,value
2023-02-21T00:01:03.318Z,8.51
2023-02-21T00:03:29.800Z,8.75
2023-02-21T00:05:56.196Z,8.77
2023-02-21T00:08:22.918Z,8.89
2023-02-21T00:10:49.309Z,9.16
2023-02-21T00:13:16.250Z,9.02
2023-02-21T00:15:42.690Z,9.19
2023-02-21T00:18:09.301Z,9.22
2023-02-21T00:20:35.713Z,8.90
2023-02-21T00:23:03.171Z,8.92
2023-02-21T00:25:29.993Z,9.02
2023-02-21T00:27:56.672Z,8.78
2023-02-21T00:30:23.225Z,9.00
2023-02-21T00:32:49.858Z,8.89
2023-02-21T00:35:16.353Z,8.95
2023-02-21T00:37:43.147Z,8.47
2023-02-21T00:40:09.699Z,8.79
2023-02-21T00:42:36.319Z,8.68
2023-02-21T00:45:02.786Z,8.86
2023-02-21T00:47:29.509Z,8.88
2023-02-21T00:49:55.974Z,8.82
2023-02-21T00:52:22.378Z,8.86
2023-02-21T00:54:50.729Z,9.06
2023-02-21T00:57:17.318Z,8.96
2023-02-21T00:59:43.744Z,9.00
2023-02-21T01:02:10.202Z,8.78
2023-02-21T01:04:36.790Z,8.84
2023-02-21T01:07:03.530Z,8.68
2023-02-21T01:09:29.975Z,8.85
2023-02-21T01:11:56.410Z,8.93
2023-02-21T01:14:23.008Z,9.00
2023-02-21T01:16:49.498Z,8.89
2023-02-21T01:19:16.309Z,8.65
2023-02-21T01:21:42.846Z,8.52
2023-02-21T01:24:09.283Z,8.59
2023-02-21T01:26:35.773Z,8.41
2023-02-21T01:29:02.658Z,8.50
2023-02-21T01:31:29.124Z,8.41
2023-02-21T01:33:55.653Z,8.38
2023-02-21T01:36:22.032Z,8.13
2023-02-21T01:38:48.947Z,8.25
2023-02-21T01:41:15.749Z,8.36
2023-02-21T01:43:42.402Z,8.51
2023-02-21T01:46:08.908Z,8.19
2023-02-21T01:48:35.402Z,8.15
2023-02-21T01:51:01.837Z,8.09
2023-02-21T01:53:28.510Z,8.04
2023-02-21T01:55:55.283Z,8.27
2023-02-21T01:58:21.670Z,7.92
2023-02-21T02:00:50.419Z,8.32
2023-02-21T02:03:16.985Z,8.19
2023-02-21T02:05:43.655Z,7.63
2023-02-21T02:08:10.108Z,7.75
2023-02-21T02:10:36.716Z,7.75
2023-02-21T02:13:03.184Z,7.53
2023-02-21T02:15:31.223Z,7.90
2023-02-21T02:17:57.747Z,7.78
2023-02-21T02:20:24.792Z,8.13
2023-02-21T02:22:51.295Z,8.08
2023-02-21T02:25:17.708Z,8.06
2023-02-21T02:27:45.138Z,8.28
2023-02-21T02:30:11.803Z,8.13
2023-02-21T02:32:38.299Z,8.09
2023-02-21T02:35:04.939Z,8.17
2023-02-21T02:37:31.410Z,8.38
2023-02-21T02:39:57.910Z,8.28
2023-02-21T02:42:24.495Z,8.02
2023-02-21T02:44:50.895Z,8.07
2023-02-21T02:47:17.321Z,8.11
2023-02-21T02:49:43.782Z,7.70
2023-02-21T02:52:10.257Z,7.71
2023-02-21T02:54:36.663Z,7.50
2023-02-21T02:57:03.142Z,7.83
2023-02-21T02:59:29.572Z,7.98
2023-02-21T03:01:56.051Z,7.64
2023-02-21T03:04:22.746Z,8.03
2023-02-21T03:06:49.377Z,7.68
2023-02-21T03:09:15.783Z,7.73
2023-02-21T03:11:42.444Z,7.80
2023-02-21T03:14:08.979Z,7.83
2023-02-21T03:16:35.600Z,7.40
2023-02-21T03:19:02.291Z,7.55
2023-02-21T03:21:28.791Z,7.54
2023-02-21T03:23:56.266Z,7.33
2023-02-21T03:26:22.714Z,7.52
2023-02-21T03:28:49.188Z,7.48
2023-02-21T03:31:16.051Z,7.65
2023-02-21T03:33:43.735Z,7.53
2023-02-21T03:36:10.268Z,7.49
2023-02-21T03:38:36.651Z,7.59
2023-02-21T03:41:03.132Z,7.34
2023-02-21T03:43:29.644Z,7.24
2023-02-21T03:45:56.192Z,6.77
2023-02-21T03:48:31.325Z,7.15
2023-02-21T03:50:58.725Z,6.83
2023-02-21T03:53:25.746Z,6.96
2023-02-21T03:55:52.171Z,7.00
2023-02-21T03:58:19.043Z,7.11
2023-02-21T04:00:45.591Z,7.08
2023-02-21T04:03:12.119Z,6.94
2023-02-21T04:05:38.467Z,7.00
2023-02-21T04:08:04.916Z,6.79
2023-02-21T04:10:35.760Z,6.97
2023-02-21T04:13:04.479Z,7.17
2023-02-21T04:15:31.420Z,7.00
2023-02-21T04:17:58.366Z,7.08
2023-02-21T04:20:27.908Z,7.21
2023-02-21T04:23:03.148Z,7.19
2023-02-21T04:25:30.333Z,7.42
2023-02-21T04:27:57.036Z,7.28
2023-02-21T04:30:23.707Z,6.72
2023-02-21T04:32:52.742Z,7.07
2023-02-21T04:35:19.311Z,7.09
2023-02-21T04:37:45.734Z,7.25
2023-02-21T04:40:12.168Z,6.90
2023-02-21T04:42:38.523Z,7.20
2023-02-21T04:45:05.166Z,7.06
2023-02-21T04:47:31.591Z,7.00
2023-02-21T04:49:58.012Z,6.80
2023-02-21T04:52:24.408Z,6.45
2023-02-21T04:54:50.996Z,6.91
2023-02-21T04:57:17.391Z,6.58
2023-02-21T04:59:43.807Z,6.49
2023-02-21T05:02:10.403Z,5.83
2023-02-21T05:04:36.919Z,6.50
2023-02-21T05:07:03.483Z,6.95
2023-02-21T05:09:29.955Z,6.57
2023-02-21T05:11:56.806Z,6.71
2023-02-21T05:14:23.287Z,6.68
2023-02-21T05:16:49.805Z,7.24
2023-02-21T05:19:16.947Z,7.54
2023-02-21T05:21:43.452Z,7.31
2023-02-21T05:24:10.419Z,7.47
2023-02-21T05:26:37.057Z,7.13
2023-02-21T05:29:03.752Z,7.47
2023-02-21T05:31:30.269Z,7.43
2023-02-21T05:33:56.889Z,7.08
2023-02-21T05:36:23.383Z,7.35
2023-02-21T05:38:50.052Z,6.87
2023-02-21T05:41:17.145Z,6.91
2023-02-21T05:43:44.251Z,6.86
2023-02-21T05:46:10.881Z,6.92
2023-02-21T05:48:37.452Z,6.83
2023-02-21T05:51:04.377Z,7.15
2023-02-21T05:53:31.030Z,6.96
2023-02-21T05:55:57.467Z,7.07
2023-02-21T05:58:24.001Z,7.19
2023-02-21T06:00:50.614Z,7.23
2023-02-21T06:03:17.276Z,7.24
2023-02-21T06:05:43.969Z,6.59
2023-02-21T06:08:11.895Z,6.96
2023-02-21T06:10:40.176Z,7.16
2023-02-21T06:13:08.939Z,7.44
2023-02-21T06:15:35.453Z,7.37
2023-02-21T06:18:01.958Z,7.32
2023-02-21T06:20:28.423Z,6.51
2023-02-21T06:22:55.306Z,6.92
2023-02-21T06:25:21.774Z,6.72
2023-02-21T06:27:48.183Z,6.53
2023-02-21T06:30:17.800Z,6.76
2023-02-21T06:32:45.399Z,6.96
2023-02-21T06:35:11.920Z,7.17
2023-02-21T06:37:38.762Z,7.10
2023-02-21T06:40:05.176Z,7.36
2023-02-21T06:42:31.690Z,7.37
2023-02-21T06:44:58.340Z,7.43
2023-02-21T06:47:24.962Z,7.37
2023-02-21T06:49:51.919Z,7.56
2023-02-21T06:52:18.573Z,7.67
2023-02-21T06:54:45.000Z,7.63
2023-02-21T06:57:11.527Z,7.45
2023-02-21T06:59:37.924Z,7.57
2023-02-21T07:02:04.460Z,7.45
2023-02-21T07:04:31.099Z,7.73
2023-02-21T07:06:57.590Z,7.69
2023-02-21T07:09:24.073Z,7.94
2023-02-21T07:11:50.519Z,8.05
2023-02-21T07:14:17.011Z,8.10
2023-02-21T07:16:44.171Z,8.23
2023-02-21T07:19:10.834Z,8.36
2023-02-21T07:24:02.770Z,8.03
2023-02-21T07:26:31.433Z,8.31
2023-02-21T07:29:00.368Z,8.53
2023-02-21T07:31:26.871Z,8.70
2023-02-21T07:33:53.470Z,8.52
2023-02-21T07:36:20.054Z,8.72
2023-02-21T07:38:46.880Z,8.77
2023-02-21T07:41:14.024Z,8.78
2023-02-21T07:43:40.684Z,8.86
2023-02-21T07:46:07.256Z,8.58
2023-02-21T07:48:34.039Z,8.83
2023-02-21T07:51:00.829Z,8.75
2023-02-21T07:53:27.280Z,8.81
2023-02-21T07:55:53.756Z,8.79
2023-02-21T07:58:21.494Z,8.75
2023-02-21T08:00:48.016Z,8.88
2023-02-21T08:03:14.583Z,8.71
2023-02-21T08:05:41.120Z,8.72
2023-02-21T08:08:07.559Z,8.39
2023-02-21T08:10:34.330Z,8.71
2023-02-21T08:13:00.764Z,8.96
2023-02-21T08:15:27.498Z,8.72
2023-02-21T08:17:53.929Z,8.43
2023-02-21T08:20:20.393Z,8.32
2023-02-21T08:22:48.849Z,8.22
2023-02-21T08:25:15.710Z,8.47
2023-02-21T08:27:42.528Z,8.89
2023-02-21T08:30:09.018Z,8.63
2023-02-21T08:32:36.530Z,8.35
2023-02-21T08:35:03.081Z,8.91
2023-02-21T08:37:30.794Z,8.97
2023-02-21T08:39:57.350Z,8.73
2023-02-21T08:42:24.062Z,8.86
2023-02-21T08:44:50.790Z,8.81
2023-02-21T08:47:17.286Z,8.77
2023-02-21T08:49:44.093Z,8.95
2023-02-21T08:52:10.694Z,9.19
2023-02-21T08:54:39.211Z,8.94
2023-02-21T08:57:06.039Z,9.00
2023-02-21T08:59:32.607Z,8.87
2023-02-21T09:01:59.317Z,8.87
2023-02-21T09:04:25.878Z,8.86
2023-02-21T09:06:53.382Z,8.91
2023-02-21T09:09:19.803Z,8.30
2023-02-21T09:11:46.463Z,8.18
2023-02-21T09:14:12.868Z,8.96
2023-02-21T09:16:39.339Z,9.01
2023-02-21T09:19:05.890Z,9.26
2023-02-21T09:21:32.291Z,8.89
2023-02-21T09:23:59.144Z,8.75
2023-02-21T09:26:25.633Z,8.73
2023-02-21T09:28:53.041Z,8.90
2023-02-21T09:31:20.501Z,8.05
2023-02-21T09:33:47.069Z,8.25
2023-02-21T09:36:14.136Z,8.34
2023-02-21T09:38:40.747Z,8.26
2023-02-21T09:41:07.383Z,8.22
2023-02-21T09:43:33.851Z,8.05
2023-02-21T09:46:00.748Z,7.81
2023-02-21T09:48:27.448Z,8.25
2023-02-21T09:50:53.909Z,8.07
2023-02-21T09:53:20.307Z,8.51
2023-02-21T09:55:46.684Z,8.63
2023-02-21T09:58:13.331Z,8.77
2023-02-21T10:00:39.937Z,9.25
2023-02-21T10:03:07.653Z,9.42
2023-02-21T10:05:34.148Z,9.52
2023-02-21T10:08:00.910Z,9.20
2023-02-21T10:10:27.735Z,8.88
2023-02-21T10:12:56.892Z,8.89
2023-02-21T10:15:23.532Z,8.55
2023-02-21T10:17:50.030Z,8.60
2023-02-21T10:20:16.432Z,8.53
2023-02-21T10:22:43.249Z,8.62
2023-02-21T10:25:10.548Z,8.60
2023-02-21T10:27:37.386Z,8.47
2023-02-21T10:30:03.835Z,8.87
2023-02-21T10:32:30.257Z,9.12
2023-02-21T10:34:57.102Z,8.75
2023-02-21T10:37:23.712Z,8.42
2023-02-21T10:39:51.251Z,8.50
2023-02-21T10:42:17.685Z,8.70
2023-02-21T10:44:44.350Z,8.60
2023-02-21T10:47:11.021Z,8.86
2023-02-21T10:49:37.985Z,8.58
2023-02-21T10:52:04.554Z,8.46
2023-02-21T10:54:33.473Z,8.78
2023-02-21T10:57:01.234Z,8.53
2023-02-21T10:59:27.711Z,8.52
2023-02-21T11:01:54.323Z,8.59
2023-02-21T11:04:22.197Z,8.39
2023-02-21T11:06:48.878Z,8.41
2023-02-21T11:09:15.852Z,8.30
2023-02-21T11:11:42.312Z,8.60
2023-02-21T11:14:09.389Z,8.41
2023-02-21T11:16:35.949Z,8.80
2023-02-21T11:19:03.328Z,9.00
2023-02-21T11:21:29.799Z,8.90
2023-02-21T11:23:56.616Z,9.02
2023-02-21T11:26:23.168Z,9.20
2023-02-21T11:28:49.764Z,9.27
2023-02-21T11:31:16.629Z,9.29
2023-02-21T11:33:45.208Z,9.51
2023-02-21T11:36:11.979Z,9.34
2023-02-21T11:38:38.553Z,9.48
2023-02-21T11:41:05.525Z,9.58
2023-02-21T11:43:32.342Z,9.55
2023-02-21T11:45:59.165Z,9.42
2023-02-21T11:48:26.172Z,9.59
2023-02-21T11:50:52.662Z,9.70
2023-02-21T11:53:19.508Z,9.65
2023-02-21T11:55:46.253Z,9.87
2023-02-21T11:58:12.999Z,9.43
2023-02-21T12:00:40.100Z,9.00
2023-02-21T12:03:06.583Z,9.29
2023-02-21T12:05:33.351Z,9.53
2023-02-21T12:08:00.124Z,9.23
2023-02-21T12:10:26.711Z,8.96
2023-02-21T12:12:53.175Z,9.18
2023-02-21T12:15:21.911Z,9.15
2023-02-21T12:17:48.380Z,9.66
2023-02-21T12:20:15.209Z,9.80
2023-02-21T12:22:42.763Z,9.58
2023-02-21T12:25:09.291Z,9.48
2023-02-21T12:27:35.884Z,9.14
2023-02-21T12:30:02.513Z,9.54
2023-02-21T12:32:29.171Z,9.44
2023-02-21T12:34:58.040Z,9.86
2023-02-21T12:37:24.451Z,9.88
2023-02-21T12:39:51.134Z,9.63
2023-02-21T12:42:19.255Z,10.09
2023-02-21T12:44:45.763Z,10.29
2023-02-21T12:47:12.250Z,9.98
2023-02-21T12:49:39.030Z,10.10
2023-02-21T12:52:05.432Z,10.09
2023-02-21T12:54:31.942Z,9.53
2023-02-21T12:56:58.646Z,9.62
2023-02-21T12:59:28.740Z,10.10
2023-02-21T13:01:55.529Z,10.31
2023-02-21T13:04:22.035Z,10.48
2023-02-21T13:06:49.328Z,10.57
2023-02-21T13:09:15.871Z,10.26
2023-02-21T13:11:43.441Z,10.38
2023-02-21T13:14:10.164Z,10.44
2023-02-21T13:16:39.865Z,10.60
2023-02-21T13:19:06.347Z,10.88
2023-02-21T13:21:33.084Z,10.87
2023-02-21T13:24:09.136Z,10.62
2023-02-21T13:26:35.757Z,10.63
2023-02-21T13:29:02.337Z,10.54
2023-02-21T13:31:29.342Z,10.88
2023-02-21T13:33:56.978Z,10.82
2023-02-21T13:36:23.779Z,10.86
2023-02-21T13:38:53.314Z,11.06
2023-02-21T13:41:19.807Z,11.11
2023-02-21T13:43:48.749Z,10.96
2023-02-21T13:46:15.346Z,10.16
2023-02-21T13:48:41.821Z,11.08
2023-02-21T13:51:08.562Z,11.51
2023-02-21T13:53:35.009Z,11.32
2023-02-21T13:56:01.600Z,11.38
2023-02-21T13:58:29.586Z,11.20
2023-02-21T14:00:56.440Z,10.77
2023-02-21T14:03:25.408Z,10.41
2023-02-21T14:05:51.910Z,10.42
2023-02-21T14:08:18.392Z,10.68
2023-02-21T14:10:45.206Z,10.70
2023-02-21T14:13:12.372Z,10.66
2023-02-21T14:15:39.247Z,10.67
2023-02-21T14:18:06.110Z,10.97
2023-02-21T14:20:32.642Z,10.76
2023-02-21T14:22:59.347Z,10.96
2023-02-21T14:25:26.265Z,10.73
2023-02-21T14:27:53.821Z,11.28
2023-02-21T14:30:21.324Z,11.16
2023-02-21T14:32:48.016Z,11.07
2023-02-21T14:35:14.556Z,11.35
2023-02-21T14:37:41.201Z,11.38
2023-02-21T14:40:07.690Z,11.28
2023-02-21T14:42:34.324Z,11.17
2023-02-21T14:45:00.805Z,10.80
2023-02-21T14:47:28.689Z,11.26
2023-02-21T14:49:55.142Z,11.53
2023-02-21T14:52:21.628Z,11.27
2023-02-21T14:54:48.527Z,11.30
2023-02-21T14:57:15.390Z,10.72
2023-02-21T14:59:42.110Z,11.19
2023-02-21T15:02:10.292Z,11.44
2023-02-21T15:04:36.985Z,11.38
2023-02-21T15:07:03.513Z,11.68
2023-02-21T15:09:30.050Z,11.83
2023-02-21T15:11:56.844Z,11.60
2023-02-21T15:14:23.600Z,11.72
2023-02-21T15:16:50.211Z,11.89
2023-02-21T15:19:16.707Z,12.03
2023-02-21T15:21:43.254Z,12.32
2023-02-21T15:24:09.773Z,12.30
2023-02-21T15:26:36.454Z,12.04
2023-02-21T15:29:04.425Z,12.23
2023-02-21T15:31:31.051Z,12.19
2023-02-21T15:33:57.689Z,11.94
2023-02-21T15:36:24.496Z,11.93
2023-02-21T15:38:51.289Z,11.81
2023-02-21T15:41:18.269Z,12.05
2023-02-21T15:43:46.325Z,11.41
2023-02-21T15:46:12.932Z,11.65
2023-02-21T15:48:39.816Z,11.77
2023-02-21T15:51:06.248Z,11.74
2023-02-21T15:53:35.648Z,11.60
2023-02-21T15:56:02.612Z,11.56
2023-02-21T15:58:29.272Z,11.78
2023-02-21T16:00:58.401Z,11.62
2023-02-21T16:03:25.175Z,11.46
2023-02-21T16:05:52.055Z,11.43
2023-02-21T16:08:19.182Z,11.64
2023-02-21T16:10:45.790Z,11.57
2023-02-21T16:13:13.322Z,11.28
2023-02-21T16:15:40.003Z,11.47
2023-02-21T16:18:07.559Z,11.45
2023-02-21T16:20:34.111Z,11.58
2023-02-21T16:23:07.809Z,11.42
2023-02-21T16:25:34.616Z,11.55
2023-02-21T16:28:02.695Z,11.71
2023-02-21T16:30:29.375Z,11.33
2023-02-21T16:32:56.177Z,11.31
2023-02-21T16:35:22.767Z,11.17
2023-02-21T16:37:50.440Z,10.93
2023-02-21T16:40:17.349Z,10.98
2023-02-21T16:42:44.382Z,10.87
2023-02-21T16:45:11.994Z,10.80
2023-02-21T16:47:38.525Z,11.08
2023-02-21T16:50:05.482Z,10.75
2023-02-21T16:52:32.255Z,10.69
2023-02-21T16:54:59.137Z,10.27
2023-02-21T16:57:26.238Z,10.11
2023-02-21T16:59:53.778Z,9.82
2023-02-21T17:02:20.529Z,9.88
2023-02-21T17:04:48.529Z,10.17
2023-02-21T17:07:15.429Z,10.20
2023-02-21T17:09:41.925Z,10.65
2023-02-21T17:12:08.537Z,10.69
2023-02-21T17:14:36.049Z,10.91
2023-02-21T17:17:02.687Z,10.47
2023-02-21T17:19:29.500Z,10.77
2023-02-21T17:21:57.180Z,10.92
2023-02-21T17:24:23.821Z,10.65
2023-02-21T17:26:50.283Z,10.89
2023-02-21T17:29:16.922Z,10.80
2023-02-21T17:31:43.510Z,10.85
2023-02-21T17:34:10.152Z,10.80
2023-02-21T17:36:40.711Z,11.09
2023-02-21T17:39:10.744Z,10.87
2023-02-21T17:41:37.613Z,10.55
2023-02-21T17:44:04.611Z,10.86
2023-02-21T17:46:31.133Z,11.02
2023-02-21T17:48:59.915Z,11.04
2023-02-21T17:51:26.832Z,10.96
2023-02-21T17:53:53.855Z,11.01
2023-02-21T17:56:20.817Z,11.33
2023-02-21T17:58:47.900Z,11.22
2023-02-21T18:01:15.407Z,11.15
2023-02-21T18:03:43.441Z,11.19
2023-02-21T18:06:10.446Z,10.66
2023-02-21T18:08:36.913Z,10.76
2023-02-21T18:11:05.204Z,11.04
2023-02-21T18:13:35.105Z,10.93
2023-02-21T18:16:05.129Z,10.60
2023-02-21T18:18:34.257Z,10.73
2023-02-21T18:21:01.774Z,10.25
2023-02-21T18:23:28.751Z,10.37
2023-02-21T18:25:58.511Z,10.44
2023-02-21T18:28:25.183Z,10.45
2023-02-21T18:30:56.044Z,10.58
2023-02-21T18:33:28.207Z,10.99
2023-02-21T18:35:55.913Z,11.05
2023-02-21T18:38:26.944Z,11.07
2023-02-21T18:40:55.042Z,11.17
2023-02-21T18:43:22.186Z,11.25
2023-02-21T18:45:49.302Z,10.98
2023-02-21T18:48:16.401Z,10.71
2023-02-21T18:50:43.679Z,10.95
2023-02-21T18:53:10.921Z,11.19
2023-02-21T18:55:38.088Z,10.99
2023-02-21T18:58:05.214Z,11.06
2023-02-21T19:00:32.808Z,11.11
2023-02-21T19:03:00.920Z,11.05
2023-02-21T19:05:30.241Z,11.02
2023-02-21T19:08:00.060Z,10.93
2023-02-21T19:10:27.200Z,11.04
2023-02-21T19:12:57.245Z,11.00
2023-02-21T19:15:24.620Z,11.12
2023-02-21T19:17:56.684Z,11.12
2023-02-21T19:20:23.893Z,11.03
2023-02-21T19:22:50.864Z,11.25
2023-02-21T19:25:18.385Z,11.22
2023-02-21T19:27:45.866Z,11.38
2023-02-21T19:30:13.314Z,11.02
2023-02-21T19:32:42.013Z,11.24
2023-02-21T19:35:09.096Z,11.25
2023-02-21T19:37:37.348Z,10.88
2023-02-21T19:40:03.985Z,10.91
2023-02-21T19:42:32.269Z,10.66
2023-02-21T19:44:58.897Z,10.85
2023-02-21T19:47:27.802Z,10.94
2023-02-21T19:49:57.760Z,10.79
2023-02-21T19:52:35.760Z,10.95
2023-02-21T19:55:02.930Z,10.74
2023-02-21T19:57:31.708Z,10.96
2023-02-21T20:00:02.438Z,11.04
2023-02-21T20:02:30.904Z,9.94
2023-02-21T20:05:01.510Z,10.09
2023-02-21T20:07:28.775Z,10.30
2023-02-21T20:09:55.964Z,10.72
2023-02-21T20:12:23.676Z,10.44
2023-02-21T20:14:50.838Z,10.57
2023-02-21T20:17:18.944Z,10.67
2023-02-21T20:19:46.587Z,10.77
2023-02-21T20:22:14.112Z,10.48
2023-02-21T20:24:42.297Z,10.65
2023-02-21T20:27:09.126Z,10.32
2023-02-21T20:29:35.635Z,10.45
2023-02-21T20:32:02.645Z,10.61
2023-02-21T20:34:34.687Z,10.17
2023-02-21T20:37:02.049Z,10.52
2023-02-21T20:39:28.890Z,10.48
2023-02-21T20:41:56.252Z,10.53
2023-02-21T20:44:23.371Z,10.60
2023-02-21T20:46:50.007Z,10.53
2023-02-21T20:49:21.279Z,10.64
2023-02-21T20:51:49.155Z,10.31
2023-02-21T20:54:16.806Z,10.27
2023-02-21T20:56:47.279Z,9.79
2023-02-21T20:59:15.539Z,10.00
2023-02-21T21:01:43.491Z,10.29
2023-02-21T21:04:11.930Z,10.18
2023-02-21T21:06:43.379Z,10.02
2023-02-21T21:09:10.319Z,10.31
2023-02-21T21:11:39.702Z,10.42
2023-02-21T21:14:06.657Z,10.45
2023-02-21T21:16:34.133Z,10.70
2023-02-21T21:19:00.676Z,10.70
2023-02-21T21:21:30.291Z,10.67
2023-02-21T21:23:57.410Z,10.16
2023-02-21T21:26:24.452Z,10.33
2023-02-21T21:28:51.416Z,10.47
2023-02-21T21:31:18.745Z,10.32
2023-02-21T21:33:45.676Z,10.48
2023-02-21T21:36:12.377Z,10.42
2023-02-21T21:38:39.380Z,10.41
2023-02-21T21:41:06.235Z,10.16
2023-02-21T21:43:33.254Z,10.34
2023-02-21T21:46:00.424Z,10.63
2023-02-21T21:48:27.077Z,10.62
2023-02-21T21:50:53.837Z,10.80
2023-02-21T21:53:20.376Z,10.81
2023-02-21T21:55:46.882Z,10.74
2023-02-21T21:58:13.400Z,10.38
2023-02-21T22:00:42.069Z,10.50
2023-02-21T22:03:08.986Z,10.49
2023-02-21T22:05:35.510Z,10.50
2023-02-21T22:08:02.035Z,10.60
2023-02-21T22:10:31.483Z,10.42
2023-02-21T22:12:57.883Z,10.57
2023-02-21T22:15:24.328Z,10.64
2023-02-21T22:17:51.043Z,9.98
2023-02-21T22:20:17.573Z,10.18
2023-02-21T22:22:44.459Z,10.53
2023-02-21T22:25:12.320Z,10.50
2023-02-21T22:27:38.799Z,10.60
2023-02-21T22:30:05.269Z,10.01
2023-02-21T22:32:31.962Z,9.98
2023-02-21T22:34:58.422Z,10.18
2023-02-21T22:37:24.854Z,10.20
2023-02-21T22:39:51.334Z,10.00
2023-02-21T22:42:17.868Z,10.41
2023-02-21T22:44:44.481Z,9.57
2023-02-21T22:47:10.979Z,9.93
2023-02-21T22:49:37.474Z,10.11
2023-02-21T22:52:03.894Z,10.30
2023-02-21T22:54:30.626Z,10.45
2023-02-21T22:56:57.073Z,10.32
2023-02-21T22:59:23.557Z,10.50
2023-02-21T23:01:50.163Z,10.20
2023-02-21T23:04:16.681Z,10.23
2023-02-21T23:06:43.239Z,10.38
2023-02-21T23:09:10.698Z,10.53
2023-02-21T23:11:37.159Z,10.29
2023-02-21T23:14:03.824Z,10.36
2023-02-21T23:16:30.312Z,10.17
2023-02-21T23:18:56.887Z,10.42
2023-02-21T23:21:23.838Z,10.25
2023-02-21T23:23:50.254Z,10.40
2023-02-21T23:26:16.984Z,10.42
2023-02-21T23:28:46.528Z,10.30
2023-02-21T23:31:13.108Z,10.20
2023-02-21T23:33:39.840Z,10.40
2023-02-21T23:36:06.552Z,10.16
2023-02-21T23:38:33.007Z,10.13
2023-02-21T23:40:59.685Z,9.79
2023-02-21T23:43:26.194Z,9.81
2023-02-21T23:45:52.759Z,10.00
2023-02-21T23:48:19.269Z,9.78
2023-02-21T23:50:45.727Z,9.67
2023-02-21T23:53:12.641Z,10.14
2023-02-21T23:55:39.958Z,9.32
2023-02-21T23:58:06.709Z,9.75
